Apple River, IL

4:22 PM CST on February 05, 2016 (GMT -0600)
KILSTOCK2 | | Change Station
CLOSE
Current Station
Personal Weather Station
Location: Stockton, IL
Elevation: 959 ft
Nearby Weather Stations

Elev 959 ft 42.40 °N, 89.99 °W | Updated 13 minutes ago

Mostly Cloudy
Mostly Cloudy
29.6 °F
Feels Like 25 °F
N
4.0
Wind Variable Wind from WSW
Gusts 5.0 mph

Today
High -- | Low -- °F
--% Chance of Precip.
Yesterday
High -- | Low -- °F
Precip. -- in
Pressure 30.32 in
Visibility 10.0 miles
Clouds Clear
Windchill 25 °F
Dew Point 23 °F
Humidity 76%
Rainfall 0.00 in
Snow Depth Not available.
7:10 AM 5:18 PM
Waning Crescent, 9% visible
METAR KPVB 052215Z AUTO 19004KT 10SM CLR M02/M06 A3032 RMK AO1 T10251061
Pressure 30.32 in
Visibility 10.0 miles
Clouds Clear
Windchill 25 °F
Dew Point 23 °F
Humidity 76%
Rainfall 0.00 in
Snow Depth Not available.
7:10 AM 5:18 PM
Waning Crescent, 9% visible
METAR KPVB 052215Z AUTO 19004KT 10SM CLR M02/M06 A3032 RMK AO1 T10251061

10-Day Weather Forecast

Almanac

Astronomy

Feb. 05, 2016 Rise Set
Actual Time
Civil Twilight
Nautical Twilight
Astronomical Twilight
Moon
Length of Visible Light
Length of Day
Tomorrow will be .
, % of the Moon is Illuminated

Today's Extremes

State Highs State Lows

Community

WunderPhotos

Upload Photos

1,890,878 photos uploaded!

WunderBlog® & News

Nearby

Air Quality

  Air Quality AQ Index Pollutant
Not available.

Snow Depth

Station Depth Elevation

Earthquake Activity

City Distance Mag. Time & Date
Minimum magnitude displayed is 2.5.

Coastal Water Temperatures

Place Temperature

Stations

Nearby Weather Stations

Station Location Temp. Windchill Dew Point Humidity Wind Precip. Elev Updated Type
                   

Watches & Warnings

There are currently no watches in effect.